createdAt,value
2022-08-05T10:37:20.118Z,2.17
2022-08-05T10:40:03.235Z,2.30
2022-08-05T10:42:39.262Z,2.95
2022-08-05T10:45:23.633Z,3.33
2022-08-05T10:48:31.127Z,1.95
2022-08-05T10:51:03.419Z,2.33
2022-08-05T10:53:55.761Z,3.17
2022-08-05T10:56:29.734Z,4.30
2022-08-05T10:59:07.278Z,3.47
2022-08-05T11:01:55.012Z,5.78
2022-08-05T11:04:36.477Z,5.30
2022-08-05T11:07:12.030Z,5.57
2022-08-05T11:09:49.816Z,3.75
2022-08-05T11:12:38.599Z,5.28
2022-08-05T11:15:44.025Z,2.50
2022-08-05T11:18:26.055Z,5.20
2022-08-05T11:20:53.768Z,3.30
2022-08-05T11:23:33.198Z,3.20
2022-08-05T11:26:17.157Z,5.93
2022-08-05T11:28:56.738Z,2.95
2022-08-05T11:31:56.714Z,2.35
2022-08-05T11:34:37.259Z,1.77
2022-08-05T11:37:55.129Z,2.03
2022-08-05T11:39:55.501Z,2.78
2022-08-05T11:42:40.378Z,3.45
2022-08-05T11:45:23.514Z,1.20
2022-08-05T11:47:55.333Z,3.53
2022-08-05T11:50:22.830Z,1.48
2022-08-05T11:52:53.211Z,3.00
2022-08-05T11:55:24.267Z,2.42
2022-08-05T11:58:09.357Z,2.72
2022-08-05T12:00:41.117Z,2.13
2022-08-05T12:03:28.494Z,1.02
2022-08-05T12:06:06.009Z,4.05
2022-08-05T12:08:33.764Z,3.83
2022-08-05T12:11:05.575Z,1.88
2022-08-05T12:13:48.745Z,1.07
2022-08-05T12:16:19.313Z,5.32
2022-08-05T12:18:49.554Z,1.88
2022-08-05T12:21:33.449Z,3.90
2022-08-05T12:24:09.707Z,2.75
2022-08-05T12:26:40.930Z,3.87
2022-08-05T12:29:22.947Z,3.55
2022-08-05T12:32:02.087Z,2.38
2022-08-05T12:34:36.861Z,2.78
2022-08-05T12:37:16.246Z,2.60
2022-08-05T12:39:51.329Z,2.53
2022-08-05T12:42:21.049Z,3.47
2022-08-05T12:44:49.404Z,3.47
2022-08-05T12:47:30.734Z,1.98
2022-08-05T12:50:03.252Z,2.80
2022-08-05T12:52:38.568Z,3.97
2022-08-05T12:55:25.546Z,3.38
2022-08-05T12:58:51.271Z,2.85
2022-08-05T13:02:00.418Z,2.80
2022-08-05T13:03:32.997Z,2.47
2022-08-05T13:06:01.609Z,2.30
2022-08-05T13:08:30.338Z,2.05
2022-08-05T13:11:01.637Z,2.22
2022-08-05T13:14:05.201Z,2.67
2022-08-05T13:16:17.304Z,1.50
2022-08-05T13:19:02.335Z,2.03
2022-08-05T13:21:37.723Z,1.60
2022-08-05T13:24:36.186Z,2.15
2022-08-05T13:27:03.867Z,2.17
2022-08-05T13:29:37.878Z,2.67
2022-08-05T13:32:05.679Z,3.03
2022-08-05T13:34:33.097Z,1.70
2022-08-05T13:37:00.440Z,1.52
2022-08-05T13:40:15.225Z,2.58
2022-08-05T13:42:15.244Z,1.92
2022-08-05T13:44:46.354Z,2.10
2022-08-05T13:47:34.774Z,2.22
2022-08-05T13:50:08.483Z,3.08
2022-08-05T13:52:38.287Z,2.70
2022-08-05T13:55:07.813Z,2.85
2022-08-05T13:57:51.597Z,1.50
2022-08-05T14:00:27.205Z,2.72
2022-08-05T14:03:01.087Z,2.10
2022-08-05T14:05:48.252Z,2.38
2022-08-05T14:08:21.421Z,3.13
2022-08-05T14:11:03.125Z,1.37
2022-08-05T14:13:42.126Z,2.03
2022-08-05T14:16:11.306Z,1.50
2022-08-05T14:18:38.965Z,2.22
2022-08-05T14:22:07.136Z,1.30
2022-08-05T14:23:53.525Z,1.77
2022-08-05T14:26:36.752Z,1.60
2022-08-05T14:29:14.015Z,2.13
2022-08-05T14:32:02.435Z,2.78
2022-08-05T14:34:35.235Z,3.38
2022-08-05T14:37:03.211Z,2.13
2022-08-05T14:39:49.609Z,5.60
2022-08-05T14:42:20.878Z,1.48
2022-08-05T14:44:48.788Z,2.85
2022-08-05T14:47:15.654Z,1.85
2022-08-05T14:49:59.281Z,2.87
2022-08-05T14:52:50.549Z,3.13
2022-08-05T14:55:16.535Z,1.98
2022-08-05T14:57:54.368Z,3.05
2022-08-05T15:00:28.230Z,4.15
2022-08-05T15:02:56.807Z,3.20
2022-08-05T15:05:29.967Z,3.45
2022-08-05T15:08:38.034Z,3.75
2022-08-05T15:11:01.143Z,6.72
2022-08-05T15:13:45.871Z,4.85
2022-08-05T15:16:13.345Z,3.67
2022-08-05T15:18:40.641Z,5.80
2022-08-05T15:21:08.688Z,3.85
2022-08-05T15:23:35.549Z,3.47
2022-08-05T15:26:05.011Z,3.95
2022-08-05T15:28:31.759Z,4.83
2022-08-05T15:30:58.530Z,2.17
2022-08-05T15:34:04.376Z,2.15
2022-08-05T15:36:17.368Z,2.85
2022-08-05T15:41:03.178Z,5.38
2022-08-05T15:41:58.251Z,6.10
2022-08-05T15:44:27.774Z,2.63
2022-08-05T15:46:55.745Z,6.38
2022-08-05T15:49:39.934Z,7.00
2022-08-05T15:52:29.356Z,6.13
2022-08-05T15:54:56.527Z,5.50
2022-08-05T15:57:23.758Z,3.47
2022-08-05T15:59:56.714Z,3.97
2022-08-05T16:02:25.201Z,6.35
2022-08-05T16:04:52.844Z,7.78
2022-08-05T16:07:21.375Z,3.07
2022-08-05T16:09:50.357Z,4.88
2022-08-05T16:12:21.696Z,2.58
2022-08-05T16:14:48.503Z,4.05
2022-08-05T16:17:15.712Z,1.67
2022-08-05T16:20:05.500Z,2.87
2022-08-05T16:22:34.308Z,6.03
2022-08-05T16:25:07.911Z,2.50
2022-08-05T16:27:47.127Z,3.45
2022-08-05T16:30:26.198Z,4.03
2022-08-05T16:32:54.773Z,4.63
2022-08-05T16:35:27.798Z,3.83
2022-08-05T16:38:03.095Z,4.43
2022-08-05T16:40:42.644Z,4.20
2022-08-05T16:43:18.437Z,5.18
2022-08-05T16:46:06.536Z,5.37
2022-08-05T16:48:33.448Z,2.90
2022-08-05T16:51:01.033Z,5.25
2022-08-05T16:53:32.657Z,3.50
2022-08-05T16:56:14.740Z,2.47
2022-08-05T16:58:41.818Z,3.60
2022-08-05T17:01:10.519Z,4.95
2022-08-05T17:03:37.796Z,3.65
2022-08-05T17:06:06.221Z,5.18
2022-08-05T17:08:52.124Z,3.90
2022-08-05T17:11:23.452Z,6.40
2022-08-05T17:13:50.900Z,4.85
2022-08-05T17:16:32.987Z,4.13
2022-08-05T17:19:01.259Z,6.60
2022-08-05T17:21:35.805Z,4.57
2022-08-05T17:24:20.495Z,5.70
2022-08-05T17:26:53.914Z,3.97
2022-08-05T17:29:40.227Z,5.85
2022-08-05T17:32:26.719Z,3.70
2022-08-05T17:34:53.712Z,4.95
2022-08-05T17:37:40.274Z,5.60
2022-08-05T17:40:12.170Z,3.22
2022-08-05T17:42:41.557Z,5.18
2022-08-05T17:45:20.208Z,4.30
2022-08-05T17:47:53.955Z,5.63
2022-08-05T17:50:29.992Z,5.77
2022-08-05T17:52:59.547Z,4.70
2022-08-05T17:55:27.199Z,4.95
2022-08-05T17:58:02.253Z,5.05
2022-08-05T18:00:29.810Z,4.10
2022-08-05T18:02:57.313Z,5.23
2022-08-05T18:05:28.209Z,3.00
2022-08-05T18:08:02.225Z,6.28
2022-08-05T18:10:33.480Z,4.88
2022-08-05T18:13:01.993Z,7.32
2022-08-05T18:15:35.170Z,5.57
2022-08-05T18:18:11.161Z,5.65
2022-08-05T18:20:38.745Z,6.05
2022-08-05T18:23:09.342Z,6.55
2022-08-05T18:25:39.474Z,4.93
2022-08-05T18:28:09.844Z,3.40
2022-08-05T18:30:39.156Z,4.00
2022-08-05T18:33:08.534Z,6.30
2022-08-05T18:36:00.696Z,5.80
2022-08-05T18:38:28.532Z,4.55
2022-08-05T18:41:56.289Z,6.47
2022-08-05T18:43:42.987Z,3.83
2022-08-05T18:46:15.625Z,5.90
2022-08-05T18:48:52.296Z,6.95
2022-08-05T18:52:05.611Z,2.88
2022-08-05T18:54:31.239Z,7.00
2022-08-05T18:57:01.091Z,6.78
2022-08-05T18:59:43.238Z,6.97
2022-08-05T19:02:26.609Z,4.65
2022-08-05T19:05:02.272Z,4.05
2022-08-05T19:07:45.286Z,5.87
2022-08-05T19:10:14.066Z,2.38
2022-08-05T19:12:40.842Z,5.93
2022-08-05T19:15:25.188Z,6.90
2022-08-05T19:18:10.031Z,4.28
2022-08-05T19:20:41.298Z,4.40
2022-08-05T19:23:08.743Z,6.13
2022-08-05T19:26:02.193Z,8.02
2022-08-05T19:28:31.098Z,5.28
2022-08-05T19:31:00.955Z,8.63
2022-08-05T19:33:35.715Z,6.13
2022-08-05T19:36:06.610Z,7.75
2022-08-05T19:38:35.765Z,5.60
2022-08-05T19:41:07.413Z,5.82
2022-08-05T19:44:05.347Z,5.03
2022-08-05T19:46:30.135Z,6.03
2022-08-05T19:49:03.432Z,3.22
2022-08-05T19:52:05.948Z,5.68
2022-08-05T19:54:25.640Z,7.35
2022-08-05T19:56:57.069Z,4.85
2022-08-05T19:59:56.406Z,5.63
2022-08-05T20:02:14.879Z,3.72
2022-08-05T20:04:46.015Z,5.85
2022-08-05T20:07:14.033Z,3.30
2022-08-05T20:09:54.375Z,7.50
2022-08-05T20:12:23.460Z,9.10
2022-08-05T20:14:52.272Z,5.32
2022-08-05T20:17:23.412Z,6.25
2022-08-05T20:19:56.959Z,7.47
2022-08-05T20:22:26.965Z,7.00
2022-08-05T20:24:55.878Z,4.03
2022-08-05T20:27:26.851Z,6.03
2022-08-05T20:29:58.944Z,5.90
2022-08-05T20:32:27.570Z,2.60
2022-08-05T20:34:54.911Z,6.57
2022-08-05T20:38:04.773Z,8.93
2022-08-05T20:40:10.721Z,6.30
2022-08-05T20:42:38.221Z,7.55
2022-08-05T20:45:07.401Z,8.55
2022-08-05T20:47:35.508Z,5.03
2022-08-05T20:50:11.383Z,6.37
2022-08-05T20:52:41.426Z,6.60
2022-08-05T20:55:54.771Z,5.53
2022-08-05T20:57:57.371Z,8.73
2022-08-05T21:00:52.089Z,5.95
2022-08-05T21:03:11.994Z,7.47
2022-08-05T21:05:53.797Z,7.22
2022-08-05T21:08:26.438Z,6.00
2022-08-05T21:11:00.523Z,8.23
2022-08-05T21:13:55.812Z,7.30
2022-08-05T21:16:20.064Z,3.93
2022-08-05T21:18:47.439Z,5.85
2022-08-05T21:21:14.844Z,6.80
2022-08-05T21:23:42.639Z,9.77
2022-08-05T21:26:12.370Z,6.63
2022-08-05T21:28:47.944Z,9.30
2022-08-05T21:31:18.850Z,3.70
2022-08-05T21:33:47.562Z,7.28
2022-08-05T21:36:19.159Z,5.32
2022-08-05T21:38:55.317Z,3.95
2022-08-05T21:41:22.553Z,4.57
2022-08-05T21:43:50.952Z,5.50
2022-08-05T21:46:28.874Z,3.90
2022-08-05T21:48:56.778Z,8.65
2022-08-05T21:52:22.459Z,10.75
2022-08-05T21:54:14.319Z,8.20
2022-08-05T21:56:44.643Z,9.15
2022-08-05T21:59:24.262Z,7.65
2022-08-05T22:01:54.456Z,7.03
2022-08-05T22:04:25.393Z,5.50
2022-08-05T22:06:53.363Z,5.50
2022-08-05T22:09:21.122Z,7.35
2022-08-05T22:11:49.898Z,4.85
2022-08-05T22:14:33.561Z,4.68
2022-08-05T22:17:06.588Z,7.85
2022-08-05T22:20:00.723Z,5.57
2022-08-05T22:22:27.921Z,5.40
2022-08-05T22:25:21.020Z,3.55
2022-08-05T22:28:10.515Z,6.03
2022-08-05T22:30:44.091Z,10.32
2022-08-05T22:33:57.323Z,9.13
2022-08-05T22:36:14.309Z,8.95
2022-08-05T22:38:42.948Z,5.80
2022-08-05T22:41:10.605Z,8.85
2022-08-05T22:43:38.524Z,5.47
2022-08-05T22:46:13.406Z,4.07
2022-08-05T22:48:41.953Z,5.30
2022-08-05T22:51:15.655Z,6.72
2022-08-05T22:53:42.641Z,6.03
2022-08-05T22:56:17.561Z,7.65
2022-08-05T22:58:58.894Z,4.13
2022-08-05T23:02:04.387Z,5.25
2022-08-05T23:04:14.292Z,8.38
2022-08-05T23:06:41.529Z,8.77
2022-08-05T23:09:27.941Z,9.55
2022-08-05T23:11:56.257Z,8.80
2022-08-05T23:14:32.182Z,7.60
2022-08-05T23:17:24.215Z,5.95
2022-08-05T23:20:00.601Z,7.53
2022-08-05T23:22:29.636Z,3.80
2022-08-05T23:24:57.945Z,6.30
2022-08-05T23:27:28.913Z,6.30
2022-08-05T23:29:58.355Z,7.50
2022-08-05T23:32:26.072Z,6.70
2022-08-05T23:34:54.170Z,6.60
2022-08-05T23:37:20.931Z,7.23
2022-08-05T23:39:54.577Z,5.15
2022-08-05T23:42:23.257Z,5.07
2022-08-05T23:44:54.320Z,10.07
2022-08-05T23:47:21.372Z,5.88
2022-08-05T23:49:52.094Z,6.60
2022-08-05T23:52:35.992Z,10.18
2022-08-05T23:55:09.685Z,7.90
2022-08-05T23:57:37.824Z,5.88
